Bodega Marine Reserve, California Weather observations

Data are for 10 minute period ending at time listed.
 Day   Time   Solar   Ave.   Ave.  Ave.  Vector  Max.   Baro.   Total    
  of    of     Rad.   Air    Rel.  Wind   Wind   Wind  Press.  Precip.   
Year   Day            Temp.  Hum.  Speed  Dir.   Gust                    
2015   (PST)  Kw/m2    F      %     mph   deg.    mph    mb.     in.     
-------------------------------------------------------------------------
  85   15:10   0.57   57.1    83   13.5   300    18.0   1016.9    0.00 
  85   15:20   0.55   56.9    84   14.7   297    18.8   1016.9    0.00 
  85   15:30   0.52   56.9    84   15.5   299    19.7   1016.6    0.00 
  85   15:40   0.50   57.5    82   13.0   300    18.1   1016.6    0.00 
  85   15:50   0.47   57.5    83   11.3   290    17.5   1016.9    0.00 
  85   16:00   0.43   57.1    84   10.4   286    14.9   1016.9    0.00 
  85   16:10   0.32   56.2    86   11.1   287    15.1   1016.9    0.00 
  85   16:20   0.26   55.1    87   11.6   304    14.4   1016.6    0.00 
  85   16:30   0.18   54.2    90   10.5   305    14.0   1016.6    0.00 
  85   16:40   0.17   54.3    90   10.0   310    12.6   1016.6    0.00 
  85   16:50   0.15   53.8    91   10.2   309    13.8   1016.6    0.00 
  85   17:00   0.12   53.6    92   10.4   310    14.9   1016.6    0.00 
  85   17:10   0.10   53.4    92   10.2   307    15.0   1016.6    0.00 
  85   17:20   0.09   53.1    93    9.3   307    13.2   1016.6    0.00 
  85   17:30   0.08   52.9    93    9.6   306    13.6   1016.3    0.00 
  85   17:40   0.07   52.6    94    9.2   306    13.4   1016.3    0.00 
  85   17:50   0.06   52.4    94    7.9   311    12.2   1016.3    0.00 
  85   18:00   0.04   52.2    94    8.2   305    11.5   1016.3    0.00 
  85   18:10   0.03   52.0    95    8.7   297    12.2   1015.9    0.00 
  85   18:20   0.02   51.8    95    7.9   305    13.6   1015.9    0.00 
  85   18:30   0.01   51.6    95    7.8   305    11.7   1015.9    0.00 
  85   18:40   0.01   51.5    95    4.8   308    10.0   1015.9    0.00 
  85   18:50   0.00   51.5    95    6.2   303     8.6   1016.3    0.00 
  85   19:00   0.00   51.6    95    6.8   313     8.5   1016.3    0.00 
  85   19:10   0.00   51.6    95    5.9   311     7.9   1016.3    0.00 
  85   19:20   0.00   51.6    96    6.5   309     8.1   1016.3    0.00 
  85   19:30   0.00   51.7    96    5.1   319     7.7   1016.3    0.00 
  85   19:40   0.00   51.6    96    2.4   289     4.2   1016.3    0.00 
  85   19:50   0.00   51.6    96    3.1   287     3.9   1016.3    0.00 
  85   20:00   0.00   51.7    96    3.3   293     5.0   1016.6    0.00 
  85   20:10   0.00   51.7    96    4.3   294     6.2   1016.6    0.00 
  85   20:20   0.00   51.5    96    3.9   298     6.1   1016.6    0.00 
  85   20:30   0.00   51.4    96    4.4   295     6.9   1016.6    0.00 
  85   20:40   0.00   51.3    96    4.9   296     6.9   1016.6    0.00 
  85   20:50   0.00   51.3    96    4.6   308     6.8   1016.6    0.00 
  85   21:00   0.00   51.2    96    4.8   301     6.9   1016.6    0.00 
  85   21:10   0.00   51.4    96    2.8   293     4.7   1016.9    0.00 
  85   21:20   0.00   51.4    96    3.4   282     4.9   1016.9    0.00 
  85   21:30   0.00   51.3    96    3.2   284     4.7   1016.9    0.00 
  85   21:40   0.00   51.2    96    2.8   289     4.2   1016.9    0.00 
  85   21:50   0.00   51.1    96    1.3   251     2.7   1016.9    0.00 
  85   22:00   0.00   51.3    96    1.1   264     2.8   1016.9    0.00 
  85   22:10   0.00   51.2    96    2.0   282     4.3   1016.9    0.00 
  85   22:20   0.00   51.0    96    2.2   300     4.2   1017.3    0.00 
  85   22:30   0.00   51.1    96    3.7   280     5.1   1017.3    0.00 
  85   22:40   0.00   51.0    96    3.0   296     4.7   1017.3    0.00 
  85   22:50   0.00   51.0    96    2.5   287     4.7   1017.3    0.00 
  85   23:00   0.00   50.9    96    3.5   299     4.7   1016.9    0.00 
  85   23:10   0.00   50.9    96    2.5   304     4.2   1016.9    0.00 
  85   23:20   0.00   51.1    96    1.3   300     2.6   1016.9    0.00 
  85   23:30   0.00   51.2    96    1.7   269     3.7   1016.9    0.00 
  85   23:40   0.00   51.3    96    0.2   268     2.0   1016.9    0.00 
  85   23:50   0.00   51.2    96    0.7   255     2.6   1016.9    0.00 
  86    0:00   0.00   51.2    96    1.7   251     4.4   1016.9    0.00 
  86    0:10   0.00   51.1    96    3.1   263     4.5   1016.9    0.00 
  86    0:20   0.00   51.0    96    3.3   278     5.1   1017.3    0.00 
  86    0:30   0.00   51.0    97    3.5   283     5.6   1017.3    0.00 
  86    0:40   0.00   51.1    97    3.9   283     6.9   1017.3    0.00 
  86    0:50   0.00   51.1    97    4.9   287     9.1   1017.3    0.00 
  86    1:00   0.00   51.1    97    5.7   291     8.7   1017.3    0.00 
  86    1:10   0.00   51.0    97    5.2   296     8.4   1017.3    0.00 
  86    1:20   0.00   50.9    97    5.4   290     9.9   1017.3    0.00 
  86    1:30   0.00   50.6    97    5.2   276     8.9   1017.3    0.00 
  86    1:40   0.00   50.5    97    5.2   292     9.1   1016.9    0.00 
  86    1:50   0.00   50.2    97    5.5   266     7.8   1016.9    0.00 
  86    2:00   0.00   50.1    97    5.1   255     8.3   1016.9    0.00 
  86    2:10   0.00   50.1    97    4.3   257     6.6   1016.6    0.00 
  86    2:20   0.00   49.9    97    3.8   235     6.3   1016.6    0.00 
  86    2:30   0.00   49.7    97    1.1   180     3.3   1016.6    0.00 
  86    2:40   0.00   49.8    97    2.3    42     5.1   1016.6    0.00 
  86    2:50   0.00   49.7    97    4.1     7     6.5   1016.6    0.00 
  86    3:00   0.00   49.8    97    5.6     1     8.6   1016.6    0.00 
  86    3:10   0.00   49.7    97    4.8   342     7.9   1016.6    0.00 
  86    3:20   0.00   49.8    97    7.5   315    10.1   1016.6    0.00 
  86    3:30   0.00   49.7    97    6.4   307    10.3   1016.6    0.00 
  86    3:40   0.00   49.8    97    5.9   299     9.4   1016.6    0.00 
  86    3:50   0.00   49.6    97    8.0   296    11.0   1016.6    0.00 
  86    4:00   0.00   49.4    97    7.7   304    11.2   1016.6    0.00 
  86    4:10   0.00   49.4    97    6.2   302     9.3   1016.6    0.00 
  86    4:20   0.00   49.5    97    7.3   310    10.7   1016.3    0.00 
  86    4:30   0.00   49.4    97    5.3   318     7.7   1016.3    0.00 
  86    4:40   0.00   49.6    97    5.3   310     7.2   1016.3    0.00 
  86    4:50   0.00   49.8    97    5.1   296     6.9   1016.3    0.00 
  86    5:00   0.00   49.8    97    4.4   286     7.7   1016.6    0.00 
  86    5:10   0.00   49.7    97    3.6   307     6.3   1016.6    0.00 
  86    5:20   0.00   49.7    97    4.8   280     7.9   1016.6    0.01 
  86    5:30   0.00   49.6    97    5.3   293     8.0   1016.9    0.00 
  86    5:40   0.00   49.7    97    5.8   286     9.2   1016.9    0.00 
  86    5:50   0.00   49.7    97    5.8   299     8.2   1016.9    0.00 
  86    6:00   0.00   49.5    97    5.2   279     7.5   1016.9    0.00 
  86    6:10   0.00   49.4    97    5.7   289     8.0   1016.9    0.00 
  86    6:20   0.01   49.3    97    6.8   287    10.4   1017.3    0.00 
  86    6:30   0.01   49.2    97    7.2   301    10.7   1017.3    0.00 
  86    6:40   0.01   49.4    97    7.4   298    10.6   1017.3    0.00 
  86    6:50   0.03   49.6    97    9.0   295    12.5   1017.6    0.00 
  86    7:00   0.04   49.6    97    9.2   302    12.6   1017.6    0.00 
  86    7:10   0.05   49.6    97    7.8   315    10.4   1017.6    0.00 
  86    7:20   0.06   49.8    97    7.2   323     9.3   1017.6    0.00 
  86    7:30   0.07   50.1    97    5.5   325     8.8   1017.6    0.00 
  86    7:40   0.07   50.4    97    6.4   322     8.9   1018.0    0.00 
  86    7:50   0.07   50.5    97    6.3   323     9.2   1018.3    0.00 
  86    8:00   0.08   50.7    97    7.5   322    10.2   1018.3    0.00 
  86    8:10   0.10   50.7    97    7.8   328    11.4   1018.3    0.00 
  86    8:20   0.12   51.0    97    7.8   320    11.0   1018.6    0.00 
  86    8:30   0.13   51.0    97    8.3   319    10.8   1018.6    0.00 
  86    8:40   0.14   51.1    97    8.1   320    11.2   1019.0    0.00 
  86    8:50   0.14   51.3    97    8.6   318    11.3   1019.0    0.00 
  86    9:00   0.14   51.6    97    9.6   320    12.6   1019.0    0.00 
  86    9:10   0.16   51.8    97    9.9   315    12.7   1019.3    0.00 
  86    9:20   0.18   52.1    97   10.3   314    13.8   1019.3    0.00 
  86    9:30   0.17   51.9    97   10.3   315    13.2   1019.6    0.00 
  86    9:40   0.21   52.1    97   11.6   314    15.2   1019.6    0.00 
  86    9:50   0.19   52.2    97   11.4   315    14.8   1019.6    0.00 
  86   10:00   0.21   52.5    97   11.2   308    16.5   1019.6    0.00 
  86   10:10   0.27   52.6    97   12.1   310    16.0   1020.0    0.00 
  86   10:20   0.33   52.9    97   13.0   316    18.8   1019.6    0.00 
  86   10:30   0.33   53.3    97   12.2   310    16.4   1019.6    0.00 
  86   10:40   0.37   53.6    96   13.8   310    19.1   1019.6    0.00 
  86   10:50   0.35   53.8    96   13.7   307    18.4   1019.6    0.00 
  86   11:00   0.37   54.2    96   13.5   304    19.3   1019.6    0.00 
  86   11:10   0.41   54.5    95   14.6   308    19.4   1019.6    0.00 
  86   11:20   0.41   54.6    94   15.6   306    20.6   1019.6    0.00 
  86   11:30   0.48   54.8    92   17.3   306    22.9   1019.6    0.00 
  86   11:40   0.47   55.5    91   15.2   299    21.5   1019.6    0.00 
  86   11:50   0.48   55.6    89   16.2   303    21.1   1019.6    0.00 
  86   12:00   0.57   56.4    87   15.0   302    19.9   1019.6    0.00 
  86   12:10   0.55   57.0    84   15.2   304    21.0   1019.6    0.00 
  86   12:20   0.59   57.1    83   17.0   305    22.3   1019.6    0.00 
  86   12:30   0.59   57.3    83   16.6   298    22.7   1019.3    0.00 
  86   12:40   0.61   57.7    82   15.4   300    22.1   1019.3    0.00 
  86   12:50   0.65   58.1    82   15.5   300    22.4   1019.3    0.00 
  86   13:00   0.67   58.3    81   16.0   300    21.5   1019.3    0.00 
  86   13:10   0.71   58.2    81   16.5   303    23.6   1019.0    0.00 
  86   13:20   0.71   57.9    81   17.1   291    22.9   1019.0    0.00 
  86   13:30   0.70   58.7    80   15.0   301    21.8   1019.0    0.00 
  86   13:40   0.74   59.1    79   14.7   297    20.2   1019.0    0.00 
  86   13:50   0.74   58.6    79   16.7   296    23.4   1018.6    0.00 
  86   14:00   0.73   58.6    78   18.6   304    24.3   1018.6    0.00 
  86   14:10   0.71   58.4    79   18.3   302    24.8   1018.6    0.00 
  86   14:20   0.69   58.4    78   18.7   303    25.1   1018.3    0.00 
  86   14:30   0.67   57.9    79   20.2   303    26.7   1018.3    0.00 
  86   14:40   0.65   58.0    79   20.1   303    25.9   1018.3    0.00 
  86   14:50   0.63   58.0    79   19.5   301    25.8   1018.3    0.00 
  86   15:00   0.61   58.1    79   19.1   304    25.2   1018.0    0.00 

Return to Bodega Marine Reserve graphs page.


Western Regional Climate Center,wrcc@dri.edu